Latest Weather Observations for Clermont Airport

IDQ60801

Issued at 9:22 am EST Saturday 22 September 2018 (issued every 10 minutes, with the page automatically refreshed every 10 minutes)

About weather observations | Map of weather stations | Latest weather observations for QLD | Other Formats
Station Details ID: 035124 Name: CLERMONT AIRPORT Lat: -22.78 Lon: 147.62 Height: 270.27 m
Data from the previous 72 hours. | See also: Recent months at Clermont Airport
Date/Time
EST
Temp
°C
App
Temp
°C
Dew
Point
°C
Rel
Hum
%
Delta-T
°C
Wind Press
QNH
hPa
Press
MSL
hPa
Rain since
9am
mm
Dir  Spd
km/h
Gust
km/h
Spd
kts
Gust
kts
22/09:00am 20.4 17.7 10.2 52 5.5 E 15 28 8 15 1026.2 1025.3 0.0
22/08:30am 19.5 17.3 10.8 57 4.8 SE 13 20 7 11 1026.4 1025.5 0.0
22/08:00am 18.3 16.8 10.7 61 4.1 ESE 9 19 5 10 1026.3 1025.4 0.0
22/07:30am 17.0 15.8 10.4 65 3.6 SE 7 13 4 7 1025.9 1025.0 0.0
22/07:00am 15.2 14.1 10.0 71 2.7 S 6 9 3 5 1025.5 1024.6 0.0
22/06:30am 13.1 12.4 9.9 81 1.7 S 4 6 2 3 1024.9 1024.0 0.0
22/06:00am 11.2 10.4 6.7 74 2.2 CALM 0 0 0 0 1024.4 1023.5 0.0
22/05:30am 12.4 11.9 7.7 73 2.3 CALM 0 0 0 0 1024.0 1023.1 0.0
22/05:00am 15.1 14.9 10.3 73 2.5 SE 2 6 1 3 1023.8 1022.9 0.0
22/04:30am 15.2 14.5 10.0 71 2.7 ESE 4 6 2 3 1023.6 1022.7 0.0
22/04:00am 15.7 15.4 10.0 69 3.0 ESE 2 6 1 3 1023.5 1022.6 0.0
22/03:30am 16.1 15.8 10.0 67 3.2 ENE 2 6 1 3 1023.4 1022.5 0.0
22/03:00am 16.3 15.6 9.9 66 3.4 E 4 6 2 3 1023.4 1022.5 0.0
22/02:30am 16.8 15.8 10.2 65 3.5 E 6 9 3 5 1023.4 1022.5 0.0
22/02:00am 16.8 16.2 10.4 66 3.4 E 4 9 2 5 1023.6 1022.7 0.0
22/01:30am 17.0 16.8 10.4 65 3.6 ENE 2 7 1 4 1023.8 1022.9 0.0
22/01:00am 17.1 16.9 10.5 65 3.5 ENE 2 6 1 3 1023.7 1022.8 0.0
22/12:30am 17.6 16.9 10.2 62 4.0 ENE 4 11 2 6 1023.9 1023.0 0.0
22/12:00am 18.1 17.0 10.0 59 4.3 ENE 6 9 3 5 1024.0 1023.1 0.0
 
Date/Time
EST
Temp
°C
App
Temp
°C
Dew
Point
°C
Rel
Hum
%
Delta-T
°C
Wind Press
QNH
hPa
Press
MSL
hPa
Rain since
9am
mm
Dir  Spd
km/h
Gust
km/h
Spd
kts
Gust
kts
21/11:30pm 18.4 17.0 9.7 57 4.7 NE 7 15 4 8 1023.7 1022.8 0.0
21/11:00pm 17.7 16.0 8.3 54 4.9 NE 7 15 4 8 1023.6 1022.7 0.0
21/10:30pm 15.5 12.6 -1.1 32 7.0 NE 4 7 2 4 1023.5 1022.6 0.0
21/10:00pm 12.4 8.7 -8.1 23 7.1 NE 4 11 2 6 1023.3 1022.4 0.0
21/09:30pm 12.3 9.3 -9.4 21 7.3 CALM 0 4 0 2 1022.8 1021.9 0.0
21/09:00pm 14.4 11.3 -10.3 17 8.4 CALM 0 2 0 1 1023.0 1022.1 0.0
21/08:30pm 18.3 14.8 -11.6 12 10.4 SSE 2 4 1 2 1022.8 1021.9 0.0
21/08:00pm 20.1 16.5 -12.4 10 11.3 SE 2 6 1 3 1022.4 1021.4 0.0
21/07:30pm 21.5 17.1 -12.7 9 12.1 ESE 6 9 3 5 1022.0 1021.0 0.0
21/07:00pm 23.0 18.1 -11.5 9 12.7 SE 9 20 5 11 1021.4 1020.5 0.0
21/06:30pm 22.3 18.3 -13.5 8 12.6 SE 4 9 2 5 1020.8 1019.9 0.0
21/06:00pm 24.5 19.5 -13.5 7 13.7 S 9 17 5 9 1020.2 1019.3 0.0
21/05:30pm 25.8 20.5 -12.6 7 14.3 SSE 11 19 6 10 1019.9 1019.0 0.0
21/05:00pm 26.3 20.5 -14.1 6 14.7 SSE 13 20 7 11 1019.7 1018.8 0.0
21/04:30pm 26.7 21.3 -13.8 6 14.9 SE 11 24 6 13 1019.4 1018.5 0.0
21/04:00pm 26.8 21.1 -11.8 7 14.7 SE 13 22 7 12 1019.3 1018.4 0.0
21/03:30pm 27.0 21.7 -11.7 7 14.8 ESE 11 20 6 11 1019.3 1018.4 0.0
21/03:00pm 26.6 21.4 -10.3 8 14.4 SE 11 19 6 10 1019.5 1018.6 0.0
21/02:30pm 26.7 21.2 -10.2 8 14.5 ESE 13 20 7 11 1019.6 1018.7 0.0
21/02:00pm 26.1 20.9 -10.7 8 14.2 SE 11 20 6 11 1019.9 1019.0 0.0
21/01:30pm 25.0 19.9 -10.0 9 13.5 SSE 11 20 6 11 1020.4 1019.5 0.0
21/01:00pm 25.7 19.8 -9.5 9 13.8 SSE 15 24 8 13 1020.9 1020.0 0.0
21/12:30pm 24.5 17.8 -7.9 11 13.0 SE 20 32 11 17 1021.5 1020.6 0.0
21/12:00pm 23.4 16.6 -8.7 11 12.5 SE 20 30 11 16 1022.2 1021.2 0.0
21/11:30am 22.7 16.2 -8.1 12 12.1 SE 19 32 10 17 1022.8 1021.9 0.0
21/11:00am 21.9 15.9 -6.8 14 11.4 SE 17 37 9 20 1023.1 1022.2 0.0
21/10:30am 21.6 15.0 -7.0 14 11.3 SE 20 32 11 17 1023.6 1022.7 0.0
21/10:00am 20.8 13.8 -6.7 15 10.8 SSE 22 39 12 21 1023.7 1022.8 0.0
21/09:30am 20.1 13.2 -6.5 16 10.5 SE 22 37 12 20 1024.0 1023.1 0.0
21/09:00am 18.6 10.9 -6.9 17 9.7 SE 26 39 14 21 1024.2 1023.3 0.0
21/08:30am 18.5 11.6 -6.2 18 9.6 SE 22 41 12 22 1024.1 1023.2 0.0
21/08:00am 17.6 12.4 -6.3 19 9.2 SE 13 26 7 14 1023.9 1023.0 0.0
21/07:30am 16.2 10.3 -6.1 21 8.5 SE 17 28 9 15 1023.6 1022.7 0.0
21/07:00am 15.0 10.2 -6.5 22 8.0 SSE 11 17 6 9 1023.2 1022.3 0.0
21/06:30am 14.1 9.7 -6.1 24 7.5 SSE 9 17 5 9 1022.8 1021.9 0.0
21/06:00am 14.5 9.7 -6.4 23 7.7 SSE 11 19 6 10 1022.3 1021.3 0.0
21/05:30am 14.9 9.3 -6.6 22 8.0 SSE 15 22 8 12 1021.5 1020.6 0.0
21/05:00am 15.2 9.2 -6.3 22 8.0 SSE 17 26 9 14 1021.1 1020.2 0.0
21/04:30am 15.5 9.9 -6.7 21 8.3 SSE 15 28 8 15 1020.6 1019.7 0.0
21/04:00am 16.0 10.4 -6.9 20 8.5 SSE 15 26 8 14 1020.4 1019.5 0.0
21/03:30am 16.3 11.4 -6.7 20 8.7 SSE 11 20 6 11 1020.1 1019.2 0.0
21/03:00am 16.9 11.6 -6.8 19 8.9 SSE 13 22 7 12 1019.9 1019.0 0.0
21/02:30am 17.7 11.7 -6.9 18 9.4 SSE 17 28 9 15 1019.8 1018.9 0.0
21/02:00am 18.0 11.5 -7.4 17 9.6 SSE 19 30 10 16 1019.8 1018.9 0.0
21/01:30am 18.4 12.3 -7.8 16 9.9 SSE 17 26 9 14 1019.8 1018.9 0.0
21/01:00am 18.9 13.5 -8.3 15 10.2 SE 13 22 7 12 1020.0 1019.1 0.0
21/12:30am 19.9 14.5 -8.4 14 10.7 SE 13 22 7 12 1019.7 1018.8 0.0
21/12:00am 20.7 14.4 -9.7 12 11.3 SSE 17 28 9 15 1019.5 1018.6 0.0
 
Date/Time
EST
Temp
°C
App
Temp
°C
Dew
Point
°C
Rel
Hum
%
Delta-T
°C
Wind Press
QNH
hPa
Press
MSL
hPa
Rain since
9am
mm
Dir  Spd
km/h
Gust
km/h
Spd
kts
Gust
kts
20/11:30pm 21.6 15.5 -12.6 9 12.1 S 15 24 8 13 1019.1 1018.1 0.0
20/11:00pm 22.2 16.4 -13.6 8 12.5 S 13 20 7 11 1019.0 1018.0 0.0
20/10:30pm 23.2 16.7 -12.8 8 13.0 S 17 24 9 13 1018.9 1017.9 0.0
20/10:00pm 23.8 18.2 -10.9 9 13.0 S 13 19 7 10 1018.5 1017.5 0.0
20/09:30pm 24.1 19.1 -8.2 11 12.8 S 11 17 6 9 1017.9 1017.0 0.0
20/09:00pm 24.6 19.5 -5.6 13 12.6 SSW 13 19 7 10 1017.6 1016.7 0.0
20/08:30pm 24.8 19.8 -4.5 14 12.5 SSW 13 20 7 11 1017.3 1016.4 0.0
20/08:00pm 22.4 18.1 -4.6 16 11.3 SW 9 11 5 6 1016.9 1016.0 0.0
20/07:30pm 23.9 20.0 -6.2 13 12.4 SSW 6 6 3 3 1016.3 1015.4 0.0
20/07:00pm 26.8 22.8 -7.3 10 14.1 SW 6 7 3 4 1015.8 1014.8 0.0
20/06:30pm 27.7 23.8 -6.6 10 14.5 SW 6 7 3 4 1015.2 1014.2 0.0
20/06:00pm 29.4 24.9 -6.7 9 15.5 WSW 9 15 5 8 1014.7 1013.7 0.0
20/05:30pm 30.9 25.8 -5.6 9 16.1 WSW 13 20 7 11 1014.0 1013.1 0.0
20/05:00pm 31.7 26.6 -5.0 9 16.5 WSW 13 22 7 12 1013.7 1012.8 0.0
20/04:30pm 32.1 26.8 -3.3 10 16.4 SW 15 24 8 13 1013.5 1012.6 0.0
20/04:00pm 32.6 28.9 2.6 15 15.4 SW 11 22 6 12 1013.1 1012.2 0.0
20/03:30pm 32.2 28.6 4.9 18 14.5 WSW 13 22 7 12 1013.1 1012.2 0.0
20/03:00pm 32.4 28.1 3.4 16 15.1 SW 15 24 8 13 1013.2 1012.3 0.0
20/02:30pm 31.9 29.5 6.9 21 13.7 WSW 9 20 5 11 1013.4 1012.5 0.0
20/02:00pm 31.9 28.7 6.9 21 13.7 WSW 13 20 7 11 1013.9 1013.0 0.0
20/01:30pm 31.9 29.8 8.2 23 13.3 WNW 9 26 5 14 1014.4 1013.4 0.0
20/01:00pm 31.0 28.3 7.5 23 13.0 WSW 11 28 6 15 1015.0 1014.0 0.0
20/12:30pm 30.5 27.9 7.7 24 12.6 WNW 11 24 6 13 1015.4 1014.4 0.0
20/12:00pm 29.8 26.8 7.7 25 12.2 W 13 24 7 13 1015.9 1014.9 0.0
20/11:30am 29.5 27.0 8.0 26 11.9 SW 11 19 6 10 1016.4 1015.5 0.0
20/11:00am 28.8 26.6 7.9 27 11.5 NNW 9 15 5 8 1016.9 1016.0 0.0
20/10:30am 27.7 25.6 8.1 29 10.7 WSW 9 17 5 9 1017.1 1016.2 0.0
20/10:00am 27.6 25.6 8.5 30 10.5 WNW 9 19 5 10 1017.3 1016.4 0.0
20/09:30am 26.6 24.8 8.1 31 10.1 NW 7 15 4 8 1017.2 1016.3 0.0
20/09:00am 25.3 23.7 7.9 33 9.4 WNW 6 11 3 6 1017.1 1016.2 0.0
20/08:30am 24.1 22.1 8.5 37 8.4 NW 9 13 5 7 1017.2 1016.3 0.0
20/08:00am 22.4 21.2 10.2 46 6.7 NW 7 13 4 7 1017.1 1016.2 0.0
20/07:30am 20.9 20.2 11.3 54 5.4 NW 6 13 3 7 1017.1 1016.2 0.0
20/07:00am 18.7 19.0 11.0 61 4.2 CALM 0 0 0 0 1016.9 1016.0 0.0
20/06:30am 16.0 16.0 9.9 67 3.2 CALM 0 2 0 1 1016.7 1015.8 0.0
20/06:00am 16.6 15.8 9.8 64 3.6 NW 4 6 2 3 1016.4 1015.5 0.0
20/05:30am 17.7 16.7 10.3 62 4.0 W 6 7 3 4 1015.9 1014.9 0.0
20/05:00am 18.0 16.5 10.4 61 4.1 NW 9 11 5 6 1015.4 1014.4 0.0
20/04:30am 18.3 15.9 10.2 59 4.4 NNW 13 19 7 10 1014.9 1013.9 0.0
20/04:00am 18.8 16.5 10.4 58 4.6 NNW 13 22 7 12 1014.5 1013.5 0.0
20/03:30am 19.5 18.1 10.8 57 4.8 N 9 15 5 8 1014.4 1013.4 0.0
20/03:00am 19.7 18.5 10.4 55 5.1 N 7 11 4 6 1014.4 1013.4 0.0
20/02:30am 20.1 18.0 9.7 51 5.6 N 11 20 6 11 1014.5 1013.5 0.0
20/02:00am 21.0 18.3 10.2 50 5.9 N 15 22 8 12 1014.6 1013.6 0.0
20/01:30am 20.5 19.1 9.4 49 6.0 N 7 11 4 6 1015.0 1014.0 0.0
20/01:00am 20.7 19.3 9.0 47 6.3 NE 6 11 3 6 1015.3 1014.3 0.0
20/12:30am 20.8 18.8 8.8 46 6.4 NNE 9 11 5 6 1015.6 1014.6 0.0
20/12:00am 21.4 19.8 8.7 44 6.8 NNE 7 11 4 6 1015.9 1014.9 0.0
 
Date/Time
EST
Temp
°C
App
Temp
°C
Dew
Point
°C
Rel
Hum
%
Delta-T
°C
Wind Press
QNH
hPa
Press
MSL
hPa
Rain since
9am
mm
Dir  Spd
km/h
Gust
km/h
Spd
kts
Gust
kts
19/11:30pm 22.2 19.4 8.7 42 7.3 N 13 20 7 11 1016.1 1015.2 0.0
19/11:00pm 21.8 20.3 8.3 42 7.2 NNE 6 9 3 5 1015.7 1014.7 0.0
19/10:30pm 22.7 21.0 8.4 40 7.7 NNE 7 15 4 8 1015.7 1014.7 0.0
19/10:00pm 23.1 21.4 8.4 39 7.9 NNE 7 13 4 7 1015.5 1014.5 0.0
19/09:30pm 23.4 21.2 7.9 37 8.3 NNE 9 15 5 8 1015.4 1014.4 0.0
19/09:00pm 20.5 18.8 6.1 39 7.3 N 4 9 2 5 1015.4 1014.4 0.0
19/08:30pm 20.7 19.3 5.5 37 7.6 NW 2 4 1 2 1014.8 1013.8 0.0
19/08:00pm 20.9 19.8 5.3 36 7.8 CALM 0 2 0 1 1014.6 1013.6 0.0
19/07:30pm 22.2 21.1 5.2 33 8.6 CALM 0 0 0 0 1014.2 1013.2 0.0
19/07:00pm 24.2 23.2 5.5 30 9.6 CALM 0 0 0 0 1013.8 1012.9 0.0
19/06:30pm 26.3 25.2 5.3 26 10.9 CALM 0 0 0 0 1013.5 1012.6 0.0
19/06:00pm 28.3 27.2 5.2 23 12.1 CALM 0 2 0 1 1013.3 1012.4 0.0
19/05:30pm 30.1 28.3 5.4 21 13.1 S 4 11 2 6 1013.0 1012.1 0.0
19/05:00pm 31.0 28.3 5.4 20 13.7 SSW 9 15 5 8 1012.8 1011.9 0.0
19/04:30pm 30.7 29.2 5.2 20 13.5 NW 2 7 1 4 1012.4 1011.4 0.0
19/04:00pm 31.5 29.6 6.5 21 13.6 WNW 6 13 3 7 1012.3 1011.3 0.0
19/03:30pm 30.4 27.8 6.3 22 13.0 SSE 9 15 5 8 1012.4 1011.4 0.0
19/03:00pm 30.7 27.7 5.9 21 13.3 S 11 17 6 9 1012.7 1011.8 0.0
19/02:30pm 30.8 29.0 7.3 23 12.9 NE 6 11 3 6 1013.2 1012.3 0.0
19/02:00pm 29.9 28.4 8.3 26 12.0 N 6 9 3 5 1013.7 1012.8 0.0
19/01:30pm 29.5 28.0 9.1 28 11.5 E 7 15 4 8 1014.4 1013.4 0.0
19/01:00pm 29.5 27.4 9.6 29 11.3 N 11 20 6 11 1014.7 1013.7 0.0
19/12:30pm 29.2 27.2 10.3 31 10.8 NE 11 19 6 10 1015.3 1014.3 0.0
19/12:00pm 27.5 25.5 10.2 34 9.8 N 11 19 6 10 1016.1 1015.2 0.0
19/11:30am 26.7 25.2 10.4 36 9.2 N 9 20 5 11 1017.0 1016.1 0.0
19/11:00am 25.9 23.2 10.5 38 8.7 NNE 15 24 8 13 1017.9 1017.0 0.0
19/10:30am 25.5 23.4 11.3 41 8.1 N 13 19 7 10 1018.5 1017.5 0.0
19/10:00am 24.6 22.7 11.9 45 7.3 NNE 13 22 7 12 1019.1 1018.1 0.0
19/09:30am 23.3 21.5 12.0 49 6.5 NNE 13 20 7 11 1019.5 1018.6 0.0

Other Formats:

Comma delimited format used in spreadsheet applications
http://www.bom.gov.au/fwo/IDQ60801/IDQ60801.94395.axf

JavaScript Object Notation format (JSON) in row-major order
http://www.bom.gov.au/fwo/IDQ60801/IDQ60801.94395.json